createdAt,value
2019-03-31T00:00:05.410Z,6.95
2019-03-31T00:01:08.427Z,6.94
2019-03-31T00:02:05.489Z,6.89
2019-03-31T00:03:05.525Z,6.89
2019-03-31T00:04:05.563Z,6.84
2019-03-31T00:05:05.600Z,6.84
2019-03-31T00:06:05.639Z,6.81
2019-03-31T00:07:05.679Z,6.71
2019-03-31T00:08:05.716Z,6.69
2019-03-31T00:09:05.758Z,6.64
2019-03-31T00:10:05.796Z,6.59
2019-03-31T00:11:05.831Z,6.56
2019-03-31T00:12:05.873Z,6.59
2019-03-31T00:13:06.098Z,6.55
2019-03-31T00:14:05.945Z,6.56
2019-03-31T00:15:05.993Z,6.61
2019-03-31T00:16:06.020Z,6.56
2019-03-31T00:17:06.058Z,6.62
2019-03-31T00:18:06.095Z,6.52
2019-03-31T00:19:06.134Z,6.52
2019-03-31T00:20:06.181Z,6.49
2019-03-31T00:21:06.222Z,6.48
2019-03-31T00:22:06.249Z,6.49
2019-03-31T00:23:06.289Z,6.43
2019-03-31T00:24:06.333Z,6.33
2019-03-31T00:25:06.364Z,6.34
2019-03-31T00:26:06.401Z,6.34
2019-03-31T00:27:06.440Z,6.46
2019-03-31T00:28:06.482Z,6.40
2019-03-31T00:29:06.531Z,6.27
2019-03-31T00:30:06.559Z,6.43
2019-03-31T00:31:06.592Z,6.40
2019-03-31T00:32:06.634Z,6.43
2019-03-31T00:33:06.666Z,6.31
2019-03-31T00:34:06.713Z,6.48
2019-03-31T00:35:06.745Z,6.40
2019-03-31T00:36:06.781Z,6.38
2019-03-31T00:37:07.777Z,6.27
2019-03-31T00:38:06.859Z,6.30
2019-03-31T00:39:06.895Z,6.34
2019-03-31T00:40:06.933Z,6.30
2019-03-31T00:41:06.970Z,6.31
2019-03-31T00:42:07.013Z,6.22
2019-03-31T00:43:07.062Z,6.25
2019-03-31T00:44:07.087Z,6.25
2019-03-31T00:45:07.123Z,6.25
2019-03-31T00:46:07.162Z,6.25
2019-03-31T00:47:07.210Z,6.18
2019-03-31T00:48:07.240Z,6.22
2019-03-31T00:49:07.284Z,6.12
2019-03-31T00:50:07.311Z,6.12
2019-03-31T00:51:07.350Z,6.15
2019-03-31T00:52:07.388Z,6.12
2019-03-31T00:53:07.431Z,6.09
2019-03-31T00:54:07.472Z,6.03
2019-03-31T00:55:07.510Z,5.91
2019-03-31T00:56:07.542Z,5.97
2019-03-31T00:57:07.597Z,5.99
2019-03-31T00:58:07.615Z,5.91
2019-03-31T00:59:07.655Z,5.90
2019-03-31T01:00:07.690Z,6.01
2019-03-31T01:01:07.737Z,5.96
2019-03-31T01:02:07.768Z,6.01
2019-03-31T01:03:07.806Z,6.03
2019-03-31T01:04:07.854Z,6.00
2019-03-31T01:05:07.878Z,5.78
2019-03-31T01:06:07.917Z,5.82
2019-03-31T01:07:07.960Z,5.81
2019-03-31T01:08:07.992Z,5.81
2019-03-31T01:09:08.030Z,5.90
2019-03-31T01:10:08.069Z,5.83
2019-03-31T01:11:08.105Z,5.89
2019-03-31T01:12:08.143Z,5.82
2019-03-31T01:13:08.180Z,5.82
2019-03-31T01:14:08.220Z,5.85
2019-03-31T01:15:08.266Z,5.79
2019-03-31T01:16:08.295Z,5.82
2019-03-31T01:17:08.339Z,5.78
2019-03-31T01:18:08.377Z,5.81
2019-03-31T01:19:08.408Z,5.78
2019-03-31T01:20:08.444Z,5.68
2019-03-31T01:21:08.484Z,5.64
2019-03-31T01:22:08.535Z,5.74
2019-03-31T01:23:08.558Z,5.63
2019-03-31T01:24:08.598Z,5.65
2019-03-31T01:25:08.635Z,5.57
2019-03-31T01:26:08.692Z,5.51
2019-03-31T01:27:08.715Z,5.53
2019-03-31T01:28:08.748Z,5.57
2019-03-31T01:29:08.784Z,5.48
2019-03-31T01:30:08.831Z,5.53
2019-03-31T01:31:08.860Z,5.58
2019-03-31T01:32:08.898Z,5.56
2019-03-31T01:33:08.934Z,5.60
2019-03-31T01:34:08.972Z,5.46
2019-03-31T01:35:09.010Z,5.40
2019-03-31T01:36:09.090Z,5.43
2019-03-31T01:37:09.086Z,5.40
2019-03-31T01:38:09.122Z,5.43
2019-03-31T01:39:09.160Z,5.36
2019-03-31T01:40:09.198Z,5.40
2019-03-31T01:41:09.238Z,5.33
2019-03-31T01:42:09.273Z,5.25
2019-03-31T01:43:09.311Z,5.28
2019-03-31T01:44:09.349Z,5.35
2019-03-31T01:45:09.385Z,5.27
2019-03-31T01:46:09.426Z,5.30
2019-03-31T01:47:09.471Z,5.30
2019-03-31T01:48:09.507Z,5.22
2019-03-31T01:49:09.542Z,5.27
2019-03-31T01:50:09.584Z,5.17
2019-03-31T01:51:09.611Z,5.21
2019-03-31T01:52:09.651Z,5.31
2019-03-31T01:53:09.692Z,5.13
2019-03-31T01:54:09.723Z,5.20
2019-03-31T01:55:09.761Z,5.15
2019-03-31T01:56:09.800Z,5.20
2019-03-31T01:57:09.836Z,5.22
2019-03-31T01:58:09.874Z,5.17
2019-03-31T01:59:09.912Z,5.24
2019-03-31T02:00:09.962Z,5.15
2019-03-31T02:01:09.987Z,5.17
2019-03-31T02:02:10.031Z,5.15
2019-03-31T02:03:10.063Z,5.09
2019-03-31T02:04:10.101Z,5.12
2019-03-31T02:05:10.135Z,5.12
2019-03-31T02:06:10.175Z,5.09
2019-03-31T02:07:10.210Z,5.09
2019-03-31T02:08:10.248Z,5.07
2019-03-31T02:09:10.285Z,5.02
2019-03-31T02:10:10.322Z,5.06
2019-03-31T02:11:10.368Z,5.12
2019-03-31T02:12:10.399Z,5.21
2019-03-31T02:13:10.433Z,5.21
2019-03-31T02:14:10.472Z,5.12
2019-03-31T02:15:10.510Z,5.18
2019-03-31T02:16:10.548Z,5.15
2019-03-31T02:17:10.583Z,5.06
2019-03-31T02:18:10.619Z,5.00
2019-03-31T02:19:10.658Z,5.02
2019-03-31T02:20:10.697Z,4.99
2019-03-31T02:21:10.732Z,4.89
2019-03-31T02:22:10.770Z,4.92
2019-03-31T02:23:10.810Z,4.94
2019-03-31T02:24:10.845Z,4.96
2019-03-31T02:25:10.881Z,4.92
2019-03-31T02:26:10.921Z,4.94
2019-03-31T02:27:10.958Z,4.89
2019-03-31T02:28:10.994Z,4.88
2019-03-31T02:29:11.032Z,4.77
2019-03-31T02:30:11.070Z,4.82
2019-03-31T02:31:11.108Z,4.88
2019-03-31T02:32:23.428Z,4.86
2019-03-31T02:33:11.184Z,4.85
2019-03-31T02:34:11.226Z,4.78
2019-03-31T02:35:11.254Z,4.82
2019-03-31T02:36:11.295Z,4.80
2019-03-31T02:37:11.332Z,4.77
2019-03-31T02:38:11.368Z,4.82
2019-03-31T02:39:11.404Z,4.78
2019-03-31T02:40:11.448Z,4.78
2019-03-31T02:41:11.478Z,4.80
2019-03-31T02:42:11.516Z,4.77
2019-03-31T02:43:11.554Z,4.78
2019-03-31T02:44:11.594Z,4.78
2019-03-31T02:45:11.635Z,4.75
2019-03-31T02:46:11.666Z,4.67
2019-03-31T02:47:11.702Z,4.73
2019-03-31T02:48:11.740Z,4.85
2019-03-31T02:49:11.783Z,4.82
2019-03-31T02:50:11.814Z,4.80
2019-03-31T02:51:11.854Z,4.78
2019-03-31T02:52:11.889Z,4.75
2019-03-31T02:53:11.925Z,4.58
2019-03-31T02:54:11.967Z,4.65
2019-03-31T02:55:12.001Z,4.55
2019-03-31T02:56:12.039Z,4.54
2019-03-31T02:57:12.074Z,4.54
2019-03-31T02:58:12.113Z,4.54
2019-03-31T02:59:12.151Z,4.51
2019-03-31T03:00:12.186Z,4.55
2019-03-31T03:01:12.258Z,4.54
2019-03-31T03:02:12.411Z,4.54
2019-03-31T03:03:12.301Z,4.50
2019-03-31T03:04:12.351Z,4.54
2019-03-31T03:05:19.458Z,4.55
2019-03-31T03:06:12.412Z,4.54
2019-03-31T03:07:12.448Z,4.55
2019-03-31T03:08:12.483Z,4.47
2019-03-31T03:09:12.531Z,4.52
2019-03-31T03:10:12.557Z,4.58
2019-03-31T03:11:12.595Z,4.58
2019-03-31T03:12:12.630Z,4.52
2019-03-31T03:13:12.671Z,4.50
2019-03-31T03:14:12.704Z,4.50
2019-03-31T03:15:12.742Z,4.48
2019-03-31T03:16:12.781Z,4.41
2019-03-31T03:17:12.816Z,4.48
2019-03-31T03:18:12.851Z,4.45
2019-03-31T03:19:12.889Z,4.51
2019-03-31T03:20:12.928Z,4.42
2019-03-31T03:21:12.971Z,4.37
2019-03-31T03:22:13.001Z,4.40
2019-03-31T03:23:13.161Z,4.36
2019-03-31T03:24:13.074Z,4.30
2019-03-31T03:25:13.123Z,4.33
2019-03-31T03:26:13.151Z,4.27
2019-03-31T03:27:13.188Z,4.27
2019-03-31T03:28:13.225Z,4.30
2019-03-31T03:29:13.258Z,4.15
2019-03-31T03:30:13.324Z,4.18
2019-03-31T03:31:15.719Z,4.26
2019-03-31T03:32:13.382Z,4.23
2019-03-31T03:33:17.383Z,4.20
2019-03-31T03:34:13.445Z,4.29
2019-03-31T03:35:13.482Z,4.36
2019-03-31T03:36:13.519Z,4.32
2019-03-31T03:37:13.558Z,4.23
2019-03-31T03:38:13.607Z,4.15
2019-03-31T03:39:13.632Z,4.20
2019-03-31T03:40:13.674Z,4.16
2019-03-31T03:41:13.704Z,4.22
2019-03-31T03:42:13.750Z,4.08
2019-03-31T03:43:13.780Z,4.12
2019-03-31T03:44:13.814Z,4.08
2019-03-31T03:45:13.901Z,4.12
2019-03-31T03:46:13.890Z,4.12
2019-03-31T03:47:13.922Z,4.11
2019-03-31T03:48:13.962Z,4.15
2019-03-31T03:49:14.183Z,4.02
2019-03-31T03:50:14.035Z,4.00
2019-03-31T03:51:14.093Z,4.05
2019-03-31T03:52:14.140Z,4.02
2019-03-31T03:53:14.159Z,4.04
2019-03-31T03:54:14.182Z,4.05
2019-03-31T03:55:14.224Z,4.04
2019-03-31T03:56:14.264Z,4.04
2019-03-31T03:57:14.294Z,4.06
2019-03-31T03:58:14.333Z,4.04
2019-03-31T03:59:14.366Z,4.02
2019-03-31T04:00:14.408Z,4.09
2019-03-31T04:01:14.439Z,3.98
2019-03-31T04:02:14.483Z,4.02
2019-03-31T04:03:29.050Z,4.00
2019-03-31T04:04:14.554Z,4.00
2019-03-31T04:05:14.590Z,3.98
2019-03-31T04:06:14.628Z,3.96
2019-03-31T04:07:14.668Z,3.93
2019-03-31T04:08:14.708Z,3.91
2019-03-31T04:09:14.736Z,3.88
2019-03-31T04:10:14.772Z,3.90
2019-03-31T04:11:14.842Z,3.84
2019-03-31T04:12:14.846Z,3.87
2019-03-31T04:13:14.883Z,3.84
2019-03-31T04:14:14.927Z,3.87
2019-03-31T04:15:14.957Z,3.90
2019-03-31T04:16:14.993Z,3.88
2019-03-31T04:17:15.028Z,3.87
2019-03-31T04:18:15.064Z,3.83
2019-03-31T04:19:15.102Z,3.79
2019-03-31T04:20:15.138Z,3.80
2019-03-31T04:21:15.180Z,3.78
2019-03-31T04:22:15.212Z,3.78
2019-03-31T04:23:15.250Z,3.84
2019-03-31T04:24:15.286Z,3.84
2019-03-31T04:25:15.321Z,3.76
2019-03-31T04:26:15.358Z,3.87
2019-03-31T04:27:18.929Z,3.80
2019-03-31T04:28:15.434Z,3.73
2019-03-31T04:29:15.474Z,3.80
2019-03-31T04:30:15.622Z,3.80
2019-03-31T04:31:15.543Z,3.83
2019-03-31T04:32:15.582Z,3.79
2019-03-31T04:33:15.621Z,3.83
2019-03-31T04:34:15.652Z,3.84
2019-03-31T04:35:15.693Z,3.90
2019-03-31T04:36:15.728Z,3.83
2019-03-31T04:37:15.774Z,3.79
2019-03-31T04:38:15.909Z,3.72
2019-03-31T04:39:15.840Z,3.80
2019-03-31T04:40:15.883Z,3.80
2019-03-31T04:41:15.910Z,3.84
2019-03-31T04:42:16.096Z,3.87
2019-03-31T04:43:15.983Z,3.96
2019-03-31T04:44:16.023Z,3.97
2019-03-31T04:45:16.059Z,4.04
2019-03-31T04:46:16.095Z,3.98
2019-03-31T04:47:16.133Z,4.00
2019-03-31T04:48:16.169Z,3.97
2019-03-31T04:49:16.200Z,4.05
2019-03-31T04:50:16.238Z,4.06
2019-03-31T04:51:16.275Z,4.05
2019-03-31T04:52:16.311Z,4.16
2019-03-31T04:53:16.347Z,4.15
2019-03-31T04:54:16.387Z,4.02
2019-03-31T04:55:16.423Z,4.08
2019-03-31T04:56:16.459Z,3.96
2019-03-31T04:57:16.500Z,3.94
2019-03-31T04:58:16.532Z,3.91
2019-03-31T04:59:16.568Z,3.87
2019-03-31T05:00:16.606Z,3.90
2019-03-31T05:01:16.644Z,3.90
2019-03-31T05:02:16.762Z,3.90
2019-03-31T05:03:16.724Z,3.96
2019-03-31T05:04:16.754Z,3.93
2019-03-31T05:05:16.787Z,3.88
2019-03-31T05:06:16.833Z,3.84
2019-03-31T05:07:16.860Z,3.79
2019-03-31T05:08:16.898Z,3.80
2019-03-31T05:09:16.937Z,3.86
2019-03-31T05:10:16.970Z,3.80
2019-03-31T05:11:17.009Z,3.80
2019-03-31T05:12:17.111Z,3.86
2019-03-31T05:13:17.089Z,3.84
2019-03-31T05:14:17.118Z,3.80
2019-03-31T05:15:17.157Z,3.83
2019-03-31T05:16:17.192Z,3.87
2019-03-31T05:17:17.226Z,3.88
2019-03-31T05:18:17.267Z,4.00
2019-03-31T05:19:17.301Z,3.98
2019-03-31T05:20:17.342Z,4.02
2019-03-31T05:21:17.377Z,3.98
2019-03-31T05:22:17.411Z,4.02
2019-03-31T05:23:17.447Z,4.00
2019-03-31T05:24:17.485Z,3.97
2019-03-31T05:25:17.519Z,4.00
2019-03-31T05:26:17.558Z,3.98
2019-03-31T05:27:17.594Z,3.97
2019-03-31T05:28:17.632Z,4.02
2019-03-31T05:29:17.669Z,3.98
2019-03-31T05:30:17.706Z,3.97
2019-03-31T05:31:17.741Z,4.02
2019-03-31T05:32:17.779Z,4.04
2019-03-31T05:33:17.819Z,4.08
2019-03-31T05:34:19.269Z,4.04
2019-03-31T05:35:17.888Z,3.97
2019-03-31T05:36:17.925Z,4.02
2019-03-31T05:37:17.961Z,4.00
2019-03-31T05:38:17.998Z,4.04
2019-03-31T05:39:18.043Z,4.15
2019-03-31T05:40:18.071Z,4.20
2019-03-31T05:41:18.108Z,4.30
2019-03-31T05:42:18.147Z,4.41
2019-03-31T05:43:18.182Z,4.41
2019-03-31T05:44:18.230Z,4.44
2019-03-31T05:45:18.255Z,4.54
2019-03-31T05:46:18.302Z,4.52
2019-03-31T05:47:18.339Z,4.54
2019-03-31T05:48:18.367Z,4.55
2019-03-31T05:49:18.404Z,4.52
2019-03-31T05:50:18.441Z,4.62
2019-03-31T05:51:18.483Z,4.54
2019-03-31T05:52:18.515Z,4.58
2019-03-31T05:53:18.551Z,4.55
2019-03-31T05:54:18.587Z,4.55
2019-03-31T05:55:19.037Z,4.55
2019-03-31T05:56:18.662Z,4.58
2019-03-31T05:57:18.702Z,4.58
2019-03-31T05:58:18.736Z,4.54
2019-03-31T05:59:18.772Z,4.58
2019-03-31T06:00:18.811Z,4.60
2019-03-31T06:01:18.849Z,4.59
2019-03-31T06:02:18.884Z,4.52
2019-03-31T06:03:18.927Z,4.62
2019-03-31T06:04:32.286Z,4.54
2019-03-31T06:05:19.096Z,4.75
2019-03-31T06:06:19.033Z,4.75
2019-03-31T06:07:19.075Z,4.70
2019-03-31T06:08:19.106Z,4.73
2019-03-31T06:09:19.144Z,4.82
2019-03-31T06:10:19.179Z,4.92
2019-03-31T06:11:19.217Z,4.91
2019-03-31T06:12:19.315Z,5.06
2019-03-31T06:13:19.289Z,5.00
2019-03-31T06:14:19.328Z,5.13
2019-03-31T06:15:19.367Z,5.12
2019-03-31T06:16:19.403Z,5.06
2019-03-31T06:17:19.439Z,5.17
2019-03-31T06:18:19.488Z,5.17
2019-03-31T06:19:19.516Z,5.12
2019-03-31T06:20:19.552Z,5.13
2019-03-31T06:21:19.587Z,5.20
2019-03-31T06:22:19.628Z,5.21
2019-03-31T06:23:19.663Z,5.27
2019-03-31T06:24:19.705Z,5.35
2019-03-31T06:25:19.739Z,5.40
2019-03-31T06:26:19.774Z,5.33
2019-03-31T06:27:19.813Z,5.48
2019-03-31T06:28:19.849Z,5.49
2019-03-31T06:29:19.895Z,5.51
2019-03-31T06:30:19.923Z,5.53
2019-03-31T06:31:19.961Z,5.56
2019-03-31T06:32:19.996Z,5.63
2019-03-31T06:33:20.042Z,5.65
2019-03-31T06:34:20.074Z,5.64
2019-03-31T06:35:20.125Z,5.76
2019-03-31T06:36:20.147Z,5.79
2019-03-31T06:37:20.183Z,5.86
2019-03-31T06:38:20.307Z,5.94
2019-03-31T06:39:20.257Z,5.90
2019-03-31T06:40:20.295Z,5.99
2019-03-31T06:41:20.333Z,6.04
2019-03-31T06:42:20.376Z,6.03
2019-03-31T06:43:20.418Z,6.08
2019-03-31T06:44:20.460Z,6.12
2019-03-31T06:45:20.482Z,6.21
2019-03-31T06:46:20.518Z,6.21
2019-03-31T06:47:20.560Z,6.37
2019-03-31T06:48:20.594Z,6.37
2019-03-31T06:49:20.637Z,6.34
2019-03-31T06:50:20.721Z,6.38
2019-03-31T06:51:20.710Z,6.54
2019-03-31T06:52:20.747Z,6.55
2019-03-31T06:53:20.783Z,6.48
2019-03-31T06:54:20.823Z,6.61
2019-03-31T06:55:20.861Z,6.73
2019-03-31T06:56:20.908Z,6.76
2019-03-31T06:57:20.935Z,6.74
2019-03-31T06:58:20.979Z,6.91
2019-03-31T06:59:21.009Z,6.89
2019-03-31T07:00:21.056Z,7.07
2019-03-31T07:01:21.088Z,7.20
2019-03-31T07:02:21.125Z,7.25
2019-03-31T07:03:21.163Z,7.32
2019-03-31T07:04:21.201Z,7.46
2019-03-31T07:05:21.237Z,7.60
2019-03-31T07:06:21.279Z,7.69
2019-03-31T07:07:23.871Z,7.89
2019-03-31T07:08:21.352Z,7.92
2019-03-31T07:09:21.393Z,7.97
2019-03-31T07:10:21.430Z,8.04
2019-03-31T07:11:21.468Z,8.12
2019-03-31T07:12:21.507Z,8.05
2019-03-31T07:13:21.544Z,8.08
2019-03-31T07:14:21.583Z,8.10
2019-03-31T07:15:21.622Z,8.11
2019-03-31T07:16:21.662Z,8.16
2019-03-31T07:17:21.709Z,8.15
2019-03-31T07:18:21.737Z,8.15
2019-03-31T07:19:21.782Z,8.08
2019-03-31T07:20:21.815Z,8.12
2019-03-31T07:21:21.852Z,8.11
2019-03-31T07:22:24.342Z,8.10
2019-03-31T07:23:21.931Z,8.05
2019-03-31T07:24:22.005Z,8.04
2019-03-31T07:25:22.010Z,7.97
2019-03-31T07:26:22.148Z,8.10
2019-03-31T07:27:22.090Z,8.12
2019-03-31T07:28:22.129Z,8.34
2019-03-31T07:29:22.163Z,8.41
2019-03-31T07:30:22.203Z,8.58
2019-03-31T07:31:22.239Z,8.68
2019-03-31T07:32:22.281Z,8.86
2019-03-31T07:33:22.316Z,8.81
2019-03-31T07:34:22.360Z,8.80
2019-03-31T07:35:22.397Z,8.86
2019-03-31T07:36:22.442Z,8.99
2019-03-31T07:37:22.474Z,9.14
2019-03-31T07:38:22.513Z,9.20
2019-03-31T07:39:22.697Z,9.47
2019-03-31T07:40:22.680Z,9.51
2019-03-31T07:41:22.633Z,9.75
2019-03-31T07:42:22.712Z,9.87
2019-03-31T07:43:22.709Z,9.93
2019-03-31T07:44:22.751Z,10.09
2019-03-31T07:45:22.785Z,10.14
2019-03-31T07:46:22.825Z,10.12
2019-03-31T07:47:22.865Z,10.12
2019-03-31T07:48:22.904Z,10.17
2019-03-31T07:49:22.942Z,10.18
2019-03-31T07:50:22.981Z,10.11
2019-03-31T07:51:23.035Z,10.14
2019-03-31T07:52:23.063Z,10.14
2019-03-31T07:53:23.098Z,10.15
2019-03-31T07:54:23.141Z,10.14
2019-03-31T07:55:23.180Z,10.18
2019-03-31T07:56:23.221Z,10.15
2019-03-31T07:57:23.264Z,10.09
2019-03-31T07:58:23.303Z,10.11
2019-03-31T07:59:23.359Z,10.01
2019-03-31T08:00:23.380Z,9.97
2019-03-31T08:01:23.431Z,9.93
2019-03-31T08:02:23.464Z,9.84
2019-03-31T08:03:23.500Z,9.93
2019-03-31T08:04:23.545Z,9.97
2019-03-31T08:05:32.899Z,9.97
2019-03-31T08:06:23.622Z,10.04
2019-03-31T08:07:23.656Z,10.04
2019-03-31T08:08:23.707Z,10.12
2019-03-31T08:09:23.737Z,10.09
2019-03-31T08:10:23.776Z,10.05
2019-03-31T08:11:23.819Z,10.14
2019-03-31T08:12:23.869Z,10.18
2019-03-31T08:13:23.906Z,10.34
2019-03-31T08:14:23.935Z,10.27
2019-03-31T08:15:23.979Z,10.26
2019-03-31T08:16:24.028Z,10.38
2019-03-31T08:17:24.067Z,10.42
2019-03-31T08:18:24.099Z,10.40
2019-03-31T08:19:24.145Z,10.44
2019-03-31T08:20:24.184Z,10.59
2019-03-31T08:21:24.214Z,10.60
2019-03-31T08:22:24.262Z,10.64
2019-03-31T08:23:24.307Z,10.73
2019-03-31T08:24:24.353Z,10.85
2019-03-31T08:25:24.379Z,10.91
2019-03-31T08:26:24.419Z,11.00
2019-03-31T08:27:24.457Z,11.03
2019-03-31T08:28:24.502Z,11.15
2019-03-31T08:29:24.548Z,11.29
2019-03-31T08:30:24.576Z,11.33
2019-03-31T08:31:24.626Z,11.46
2019-03-31T08:32:28.219Z,11.61
2019-03-31T08:33:24.696Z,11.67
2019-03-31T08:34:24.739Z,11.80
2019-03-31T08:35:24.777Z,11.94
2019-03-31T08:36:24.819Z,12.07
2019-03-31T08:37:24.858Z,12.16
2019-03-31T08:38:24.901Z,12.24
2019-03-31T08:39:24.948Z,12.38
2019-03-31T08:40:24.981Z,12.54
2019-03-31T08:41:25.023Z,12.57
2019-03-31T08:42:25.062Z,12.57
2019-03-31T08:43:25.103Z,12.78
2019-03-31T08:44:25.146Z,12.86
2019-03-31T08:45:25.187Z,13.01
2019-03-31T08:46:25.229Z,13.03
2019-03-31T08:47:25.270Z,13.12
2019-03-31T08:48:25.308Z,13.26
2019-03-31T08:49:25.357Z,13.30
2019-03-31T08:50:25.398Z,13.42
2019-03-31T08:51:25.442Z,13.60
2019-03-31T08:52:25.484Z,13.67
2019-03-31T08:53:25.514Z,13.79
2019-03-31T08:54:25.559Z,13.96
2019-03-31T08:55:25.612Z,14.17
2019-03-31T08:56:25.655Z,14.33
2019-03-31T08:57:25.682Z,14.64
2019-03-31T08:58:25.720Z,14.78
2019-03-31T08:59:25.878Z,14.83
2019-03-31T09:00:25.811Z,15.02
2019-03-31T09:01:25.852Z,15.11
2019-03-31T09:02:25.898Z,15.20
2019-03-31T09:03:25.944Z,15.21
2019-03-31T09:04:25.974Z,15.13
2019-03-31T09:05:26.014Z,15.16
2019-03-31T09:06:26.058Z,15.27
2019-03-31T09:07:26.100Z,15.35
2019-03-31T09:08:26.143Z,15.41
2019-03-31T09:09:26.182Z,15.35
2019-03-31T09:10:26.228Z,15.50
2019-03-31T09:11:26.277Z,15.62
2019-03-31T09:12:26.328Z,15.69
2019-03-31T09:13:26.358Z,15.65
2019-03-31T09:14:26.401Z,15.75
2019-03-31T09:15:26.441Z,15.80
2019-03-31T09:16:26.484Z,15.80
2019-03-31T09:17:26.534Z,15.87
2019-03-31T09:18:26.574Z,15.84
2019-03-31T09:19:26.615Z,15.82
2019-03-31T09:20:26.657Z,15.75
2019-03-31T09:21:26.701Z,15.57
2019-03-31T09:22:26.750Z,15.60
2019-03-31T09:23:26.786Z,15.54
2019-03-31T09:24:26.835Z,15.39
2019-03-31T09:25:26.868Z,15.32
2019-03-31T09:26:26.917Z,15.43
2019-03-31T09:27:26.961Z,15.46
2019-03-31T09:28:27.010Z,15.60
2019-03-31T09:29:27.041Z,15.64
2019-03-31T09:30:27.084Z,15.65
2019-03-31T09:31:27.132Z,15.69
2019-03-31T09:32:27.176Z,15.62
2019-03-31T09:33:27.216Z,15.82
2019-03-31T09:34:27.261Z,15.68
2019-03-31T09:35:27.298Z,15.69
2019-03-31T09:36:27.354Z,15.80
2019-03-31T09:37:27.393Z,15.76
2019-03-31T09:38:27.428Z,15.76
2019-03-31T09:39:27.483Z,15.78
2019-03-31T09:40:27.516Z,15.86
2019-03-31T09:41:27.567Z,15.97
2019-03-31T09:42:27.603Z,16.20
2019-03-31T09:43:27.646Z,16.02
2019-03-31T09:44:30.254Z,16.02
2019-03-31T09:45:27.735Z,16.09
2019-03-31T09:46:27.775Z,16.12
2019-03-31T09:47:27.819Z,16.11
2019-03-31T09:48:27.873Z,16.07
2019-03-31T09:49:27.907Z,16.04
2019-03-31T09:50:27.949Z,16.08
2019-03-31T09:51:28.000Z,16.21
2019-03-31T09:52:28.037Z,16.07
2019-03-31T09:53:28.083Z,16.09
2019-03-31T09:54:28.123Z,16.01
2019-03-31T09:55:28.168Z,16.14
2019-03-31T09:56:28.212Z,16.04
2019-03-31T09:57:28.258Z,15.96
2019-03-31T09:58:28.297Z,15.87
2019-03-31T09:59:28.345Z,15.82
2019-03-31T10:00:28.391Z,15.96
2019-03-31T10:01:28.433Z,15.93
2019-03-31T10:02:28.469Z,15.86
2019-03-31T10:03:28.529Z,15.92
2019-03-31T10:04:28.566Z,15.78
2019-03-31T10:05:28.602Z,15.72
2019-03-31T10:06:30.516Z,15.72
2019-03-31T10:07:28.691Z,15.69
2019-03-31T10:08:28.734Z,15.82
2019-03-31T10:09:28.787Z,15.86
2019-03-31T10:10:28.820Z,15.80
2019-03-31T10:11:28.867Z,15.80
2019-03-31T10:12:28.903Z,15.78
2019-03-31T10:13:28.948Z,15.78
2019-03-31T10:14:28.992Z,15.65
2019-03-31T10:15:29.044Z,15.62
2019-03-31T10:16:29.081Z,15.64
2019-03-31T10:17:29.125Z,15.57
2019-03-31T10:18:29.174Z,15.31
2019-03-31T10:19:29.212Z,15.41
2019-03-31T10:20:31.488Z,15.43
2019-03-31T10:21:29.354Z,15.38
2019-03-31T10:22:29.360Z,15.34
2019-03-31T10:23:29.385Z,15.28
2019-03-31T10:24:29.431Z,15.35
2019-03-31T10:25:29.471Z,15.43
2019-03-31T10:26:32.219Z,15.25
2019-03-31T10:27:29.554Z,15.27
2019-03-31T10:28:29.601Z,15.14
2019-03-31T10:29:29.642Z,14.94
2019-03-31T10:30:29.683Z,14.89
2019-03-31T10:31:29.735Z,14.86
2019-03-31T10:32:29.775Z,14.73
2019-03-31T10:33:29.821Z,14.75
2019-03-31T10:34:29.856Z,14.69
2019-03-31T10:35:29.903Z,14.80
2019-03-31T10:36:43.575Z,14.75
2019-03-31T10:37:29.997Z,14.65
2019-03-31T10:38:30.030Z,14.78
2019-03-31T10:39:30.070Z,14.78
2019-03-31T10:40:30.122Z,14.73
2019-03-31T10:41:31.089Z,14.83
2019-03-31T10:42:30.200Z,14.84
2019-03-31T10:43:30.352Z,14.88
2019-03-31T10:44:30.283Z,15.01
2019-03-31T10:45:30.327Z,15.06
2019-03-31T10:46:30.373Z,15.01
2019-03-31T10:47:30.415Z,14.99
2019-03-31T10:48:30.457Z,14.75
2019-03-31T10:49:30.499Z,14.73
2019-03-31T10:50:30.594Z,14.72
2019-03-31T10:51:30.585Z,14.68
2019-03-31T10:52:30.634Z,14.70
2019-03-31T10:53:30.671Z,14.75
2019-03-31T10:54:30.722Z,14.80
2019-03-31T10:55:30.760Z,14.83
2019-03-31T10:56:30.802Z,14.65
2019-03-31T10:57:30.853Z,14.72
2019-03-31T10:58:30.885Z,14.72
2019-03-31T10:59:30.928Z,14.51
2019-03-31T11:00:30.969Z,14.55
2019-03-31T11:01:31.013Z,14.64
2019-03-31T11:02:31.055Z,14.52
2019-03-31T11:03:33.048Z,14.54
2019-03-31T11:04:31.294Z,14.69
2019-03-31T11:05:31.193Z,14.70
2019-03-31T11:06:31.226Z,14.69
2019-03-31T11:07:31.279Z,14.65
2019-03-31T11:08:31.325Z,14.77
2019-03-31T11:09:34.244Z,14.75
2019-03-31T11:10:31.404Z,14.77
2019-03-31T11:11:31.456Z,14.81
2019-03-31T11:12:31.483Z,14.83
2019-03-31T11:13:31.524Z,14.77
2019-03-31T11:14:31.566Z,14.62
2019-03-31T11:15:31.624Z,14.72
2019-03-31T11:16:31.654Z,14.68
2019-03-31T11:17:31.691Z,14.69
2019-03-31T11:18:31.745Z,14.68
2019-03-31T11:19:31.777Z,14.64
2019-03-31T11:20:31.831Z,14.70
2019-03-31T11:21:31.860Z,14.64
2019-03-31T11:22:31.906Z,14.62
2019-03-31T11:23:31.948Z,14.65
2019-03-31T11:24:32.010Z,14.69
2019-03-31T11:25:32.030Z,14.81
2019-03-31T11:26:32.079Z,14.84
2019-03-31T11:27:32.114Z,14.86
2019-03-31T11:28:32.166Z,14.77
2019-03-31T11:29:32.207Z,14.86
2019-03-31T11:30:32.240Z,14.83
2019-03-31T11:31:32.319Z,14.81
2019-03-31T11:32:32.330Z,14.81
2019-03-31T11:33:32.367Z,14.80
2019-03-31T11:34:32.408Z,14.88
2019-03-31T11:35:32.460Z,14.86
2019-03-31T11:36:32.518Z,14.95
2019-03-31T11:37:32.537Z,15.02
2019-03-31T11:38:32.577Z,15.02
2019-03-31T11:39:32.626Z,14.96
2019-03-31T11:40:32.667Z,14.96
2019-03-31T11:41:32.706Z,14.92
2019-03-31T11:42:32.746Z,14.92
2019-03-31T11:43:32.803Z,14.88
2019-03-31T11:44:32.848Z,14.96
2019-03-31T11:45:32.873Z,14.98
2019-03-31T11:46:32.924Z,15.17
2019-03-31T11:47:32.968Z,15.34
2019-03-31T11:48:33.002Z,15.35
2019-03-31T11:49:33.049Z,15.36
2019-03-31T11:50:33.102Z,15.39
2019-03-31T11:51:33.138Z,15.39
2019-03-31T11:52:33.168Z,15.31
2019-03-31T11:53:33.220Z,15.38
2019-03-31T11:54:33.254Z,15.21
2019-03-31T11:55:33.296Z,15.36
2019-03-31T11:56:33.346Z,15.49
2019-03-31T11:57:33.381Z,15.57
2019-03-31T11:58:33.433Z,15.62
2019-03-31T11:59:33.467Z,15.75
2019-03-31T12:00:33.509Z,15.82
2019-03-31T12:01:33.556Z,15.78
2019-03-31T12:02:33.603Z,15.94
2019-03-31T12:03:33.639Z,15.97
2019-03-31T12:04:33.687Z,16.05
2019-03-31T12:05:33.725Z,16.15
2019-03-31T12:06:33.766Z,16.15
2019-03-31T12:07:45.959Z,16.41
2019-03-31T12:08:33.852Z,16.53
2019-03-31T12:09:33.896Z,16.50
2019-03-31T12:10:33.940Z,16.52
2019-03-31T12:11:33.981Z,16.57
2019-03-31T12:12:34.033Z,16.82
2019-03-31T12:13:34.075Z,16.88
2019-03-31T12:14:34.117Z,16.97
2019-03-31T12:15:34.158Z,16.81
2019-03-31T12:16:34.199Z,16.73
2019-03-31T12:17:34.337Z,16.73
2019-03-31T12:18:34.291Z,16.71
2019-03-31T12:19:34.326Z,16.61
2019-03-31T12:20:34.372Z,16.60
2019-03-31T12:21:34.409Z,16.45
2019-03-31T12:22:34.457Z,16.46
2019-03-31T12:23:34.504Z,16.14
2019-03-31T12:24:34.546Z,16.01
2019-03-31T12:25:34.583Z,15.84
2019-03-31T12:26:34.633Z,15.62
2019-03-31T12:27:34.671Z,15.74
2019-03-31T12:28:34.719Z,15.72
2019-03-31T12:29:34.760Z,15.62
2019-03-31T12:30:34.807Z,15.54
2019-03-31T12:31:34.845Z,15.39
2019-03-31T12:32:38.180Z,15.46
2019-03-31T12:33:34.929Z,15.46
2019-03-31T12:34:34.988Z,15.28
2019-03-31T12:35:35.024Z,15.32
2019-03-31T12:36:35.069Z,15.27
2019-03-31T12:37:42.267Z,15.25
2019-03-31T12:38:35.146Z,15.16
2019-03-31T12:39:35.196Z,15.31
2019-03-31T12:40:35.234Z,15.34
2019-03-31T12:41:35.277Z,15.38
2019-03-31T12:42:35.319Z,15.41
2019-03-31T12:43:35.368Z,15.34
2019-03-31T12:44:35.418Z,15.51
2019-03-31T12:45:35.460Z,15.72
2019-03-31T12:46:35.497Z,15.78
2019-03-31T12:47:35.530Z,15.78
2019-03-31T12:48:35.574Z,15.86
2019-03-31T12:49:35.619Z,15.89
2019-03-31T12:50:35.673Z,16.02
2019-03-31T12:51:35.702Z,15.93
2019-03-31T12:52:46.171Z,16.08
2019-03-31T12:53:35.788Z,16.09
2019-03-31T12:54:35.834Z,16.31
2019-03-31T12:55:35.879Z,16.42
2019-03-31T12:56:35.917Z,16.41
2019-03-31T12:57:35.960Z,16.27
2019-03-31T12:58:36.017Z,16.14
2019-03-31T12:59:36.048Z,16.12
2019-03-31T13:00:36.090Z,16.00
2019-03-31T13:01:36.142Z,15.93
2019-03-31T13:02:36.185Z,15.82
2019-03-31T13:03:36.223Z,15.90
2019-03-31T13:04:36.268Z,15.90
2019-03-31T13:05:36.307Z,15.94
2019-03-31T13:06:36.361Z,15.90
2019-03-31T13:07:36.395Z,16.04